Time;durP1;ratioP1;P1;durP2;ratioP2;P2;SDS_P1;SDS_P2;PMS_P1;PMS_P2;Temp;Humidity;BMP_temperature;BMP_pressure;BME280_temperature;BME280_humidity;BME280_pressure;Samples;Min_cycle;Max_cycle;Signal;HPM_P1;HPM_P2
2022/01/12 14:01:58;;;;;;;;;66.75;53.25;;;;;7.54;57.07;103068.06;5089771;27;45373;-80
2022/01/12 14:04:37;;;;;;;;;61.75;45.50;;;;;7.46;56.60;103078.34;5093133;27;45557;-80
2022/01/12 14:07:05;;;;;;;;;57.50;43.75;;;;;7.29;57.29;103067.28;5088022;27;45428;-80
2022/01/12 14:09:38;;;;;;;;;58.50;44.00;;;;;7.31;57.33;103077.84;5093143;27;45372;-80
2022/01/12 14:12:24;;;;;;;;;52.75;43.00;;;;;7.20;57.17;103078.38;5086126;27;45450;-79
2022/01/12 14:14:53;;;;;;;;;58.50;48.75;;;;;7.07;57.44;103076.16;5092936;27;45672;-81
2022/01/12 14:17:22;;;;;;;;;65.50;51.25;;;;;6.99;58.01;103069.75;5071394;27;45706;-79
2022/01/12 14:19:55;;;;;;;;;55.75;41.50;;;;;6.97;57.53;103069.69;5094077;27;45572;-78
2022/01/12 14:22:20;;;;;;;;;60.25;45.75;;;;;6.85;58.42;103070.16;5101352;27;46199;-77
2022/01/12 14:25:03;;;;;;;;;53.25;45.50;;;;;6.78;59.01;103088.31;5086437;27;45529;-78
2022/01/12 14:27:48;;;;;;;;;91.33;72.00;;;;;6.67;58.54;103086.19;5086613;27;45576;-79
2022/01/12 14:30:16;;;;;;;;;43.50;41.00;;;;;6.63;58.67;103078.13;5090219;27;45467;-79
2022/01/12 14:32:43;;;;;;;;;61.50;47.50;;;;;6.57;59.26;103074.44;5089424;27;45455;-79
2022/01/12 14:35:11;;;;;;;;;79.25;61.00;;;;;6.51;59.44;103068.97;5091090;27;45474;-79
2022/01/12 14:37:37;;;;;;;;;54.25;42.50;;;;;6.43;59.05;103070.41;5080351;27;45436;-79
2022/01/12 14:40:06;;;;;;;;;72.75;59.25;;;;;6.41;60.13;103072.09;5090108;27;45393;-79
2022/01/12 14:42:45;;;;;;;;;61.75;48.75;;;;;6.38;60.13;103074.59;5078154;27;45494;-79
2022/01/12 14:45:13;;;;;;;;;59.50;46.25;;;;;6.33;60.73;103066.56;5083907;27;45484;-78
2022/01/12 14:47:39;;;;;;;;;59.25;43.75;;;;;6.31;60.13;103081.34;5087333;27;45552;-80
2022/01/12 14:50:05;;;;;;;;;48.50;44.00;;;;;6.17;60.96;103072.06;5080142;27;45588;-79
2022/01/12 14:52:30;;;;;;;;;56.00;46.75;;;;;6.17;61.27;103088.72;5083008;27;45475;-79
2022/01/12 14:54:55;;;;;;;;;57.75;44.25;;;;;6.18;61.00;103098.38;5087813;27;45634;-78
2022/01/12 14:57:22;;;;;;;;;68.00;55.75;;;;;6.15;61.31;103085.16;5086562;27;45641;-78
2022/01/12 14:59:47;;;;;;;;;64.00;48.00;;;;;6.14;61.75;103085.09;5085492;27;46206;-79
2022/01/12 15:02:12;;;;;;;;;54.50;48.25;;;;;6.16;62.27;103086.91;5084548;27;45543;-79
2022/01/12 15:04:38;;;;;;;;;53.00;45.50;;;;;6.14;62.22;103088.59;5082005;27;45472;-79
2022/01/12 15:07:03;;;;;;;;;65.25;54.00;;;;;6.07;61.83;103078.69;5085922;27;45566;-78
2022/01/12 15:09:29;;;;;;;;;54.75;44.75;;;;;6.11;62.55;103092.84;5085802;27;45579;-78
2022/01/12 15:11:54;;;;;;;;;83.25;62.25;;;;;5.85;62.18;103059.44;5074843;27;47044;-80
2022/01/12 15:14:42;;;;;;;;;63.00;48.75;;;;;5.83;62.97;103061.13;5066159;27;45530;-78
2022/01/12 15:17:08;;;;;;;;;54.25;45.50;;;;;5.91;62.84;103094.69;5067346;28;45661;-80
2022/01/12 15:19:33;;;;;;;;;59.75;48.50;;;;;5.90;62.90;103077.13;5071086;28;45660;-79
2022/01/12 15:21:59;;;;;;;;;58.75;50.00;;;;;5.87;62.93;103080.50;5064657;28;45587;-79
2022/01/12 15:24:25;;;;;;;;;75.25;58.50;;;;;5.84;63.36;103083.00;5072165;28;45607;-79
2022/01/12 15:26:51;;;;;;;;;59.75;48.50;;;;;5.84;63.82;103086.53;5073428;28;45474;-79
2022/01/12 15:29:17;;;;;;;;;63.25;51.50;;;;;5.85;63.94;103080.44;5065342;27;45504;-80
2022/01/12 15:31:42;;;;;;;;;59.75;48.00;;;;;5.87;63.64;103091.91;5071955;27;46381;-78
2022/01/12 15:34:08;;;;;;;;;56.00;44.25;;;;;5.81;63.24;103078.53;5072978;27;45476;-80
2022/01/12 15:36:34;;;;;;;;;56.25;47.25;;;;;5.78;63.01;103083.66;5068689;27;45509;-79
2022/01/12 15:38:59;;;;;;;;;54.50;46.25;;;;;5.75;62.75;103080.91;5061490;28;45359;-79
2022/01/12 15:41:26;;;;;;;;;55.00;45.50;;;;;5.70;63.55;103075.47;5071540;28;46358;-75
2022/01/12 15:43:51;;;;;;;;;67.50;55.25;;;;;5.66;64.17;103078.84;5073193;27;45390;-76
2022/01/12 15:46:17;;;;;;;;;46.00;41.00;;;;;5.67;64.07;103074.47;5068826;27;45582;-76
2022/01/12 15:48:42;;;;;;;;;43.25;37.25;;;;;5.66;64.00;103077.94;5071659;28;45319;-75
2022/01/12 15:51:08;;;;;;;;;53.75;45.00;;;;;5.65;63.64;103078.78;5066685;27;45555;-76
2022/01/12 15:53:33;;;;;;;;;54.50;43.75;;;;;5.64;64.09;103084.84;5065440;28;45559;-75
2022/01/12 15:56:00;;;;;;;;;58.00;47.25;;;;;5.61;63.88;103085.63;5067206;27;45700;-75
2022/01/12 15:58:25;;;;;;;;;54.75;46.00;;;;;5.57;63.95;103082.81;5066167;27;45574;-75
2022/01/12 16:00:51;;;;;;;;;51.50;44.25;;;;;5.58;64.25;103095.09;5070174;28;46683;-73
2022/01/12 16:03:16;;;;;;;;;85.75;66.75;;;;;5.56;64.50;103102.00;5063377;28;45398;-73
2022/01/12 16:05:42;;;;;;;;;73.00;57.00;;;;;5.50;64.29;103094.78;5066099;28;45483;-76
2022/01/12 16:08:10;;;;;;;;;33.75;33.00;;;;;5.51;64.84;103089.59;5061897;28;45413;-76
2022/01/12 16:10:37;;;;;;;;;220.75;191.00;;;;;5.48;64.62;103094.72;5066182;28;45584;-74
2022/01/12 16:13:03;;;;;;;;;129.50;121.25;;;;;5.50;65.29;103102.66;5062592;27;45326;-76
2022/01/12 16:15:28;;;;;;;;;49.25;43.00;;;;;5.54;64.74;103099.31;5073597;27;45415;-78
2022/01/12 16:17:53;;;;;;;;;43.00;39.25;;;;;5.51;64.20;103099.19;5089949;27;44823;-79
2022/01/12 16:20:21;;;;;;;;;50.50;42.00;;;;;5.44;64.91;103089.28;5084793;28;45552;-78
2022/01/12 16:22:47;;;;;;;;;35.00;30.00;;;;;5.45;64.92;103096.31;5070813;28;45518;-79
2022/01/12 16:25:13;;;;;;;;;41.00;36.75;;;;;5.36;64.46;103083.75;5074670;28;45426;-80
2022/01/12 16:27:39;;;;;;;;;35.00;33.00;;;;;5.36;64.47;103086.38;5059504;27;46114;-78
2022/01/12 16:30:14;;;;;;;;;50.50;42.25;;;;;5.40;64.86;103096.13;5066482;28;46378;-79
2022/01/12 16:32:39;;;;;;;;;67.75;53.00;;;;;5.31;65.40;103083.53;5070638;28;45334;-78
2022/01/12 16:35:06;;;;;;;;;34.75;34.00;;;;;5.36;64.65;103099.47;5060275;27;45462;-78
2022/01/12 16:37:32;;;;;;;;;49.75;43.75;;;;;5.40;65.43;103111.88;5064319;27;45629;-79
2022/01/12 16:39:57;;;;;;;;;66.75;48.75;;;;;5.41;65.07;103108.41;5068994;28;46097;-80
2022/01/12 16:42:23;;;;;;;;;41.75;38.50;;;;;5.38;65.02;103116.16;5060192;28;45456;-78
2022/01/12 16:44:48;;;;;;;;;40.00;34.50;;;;;5.38;65.34;103108.28;5068943;28;45460;-80
2022/01/12 16:47:14;;;;;;;;;41.50;28.75;;;;;5.37;65.03;103111.72;5055520;27;45542;-79
2022/01/12 16:49:46;;;;;;;;;46.75;37.00;;;;;5.28;65.22;103099.16;5064825;28;45449;-78
2022/01/12 16:52:11;;;;;;;;;40.25;35.00;;;;;5.39;65.25;103128.44;5074005;28;45412;-78
2022/01/12 16:54:37;;;;;;;;;37.50;36.00;;;;;5.31;65.82;103125.50;5066204;27;45507;-78
2022/01/12 16:57:04;;;;;;;;;45.50;41.00;;;;;5.34;65.81;103132.59;5063240;27;45436;-79
2022/01/12 16:59:29;;;;;;;;;46.25;40.50;;;;;5.33;66.04;103134.34;5073907;27;45443;-80
2022/01/12 17:01:55;;;;;;;;;39.50;34.75;;;;;5.31;66.49;103136.00;5063774;28;45468;-79
2022/01/12 17:04:20;;;;;;;;;31.50;27.00;;;;;5.26;65.93;103128.75;5068012;27;45384;-79
2022/01/12 17:06:45;;;;;;;;;40.75;34.75;;;;;5.28;66.21;103127.09;5066368;28;45400;-80
2022/01/12 17:09:11;;;;;;;;;37.50;32.00;;;;;5.27;67.13;103125.31;5067368;28;45448;-79
2022/01/12 17:11:36;;;;;;;;;39.25;37.50;;;;;5.31;66.66;103132.47;5065378;27;45399;-79
2022/01/12 17:14:01;;;;;;;;;39.75;34.50;;;;;5.28;66.06;103116.59;5066675;27;45448;-78
2022/01/12 17:16:42;;;;;;;;;48.75;39.25;;;;;5.31;66.41;103132.47;5056627;27;45327;-79
2022/01/12 17:19:14;;;;;;;;;33.75;31.75;;;;;5.30;66.75;103122.81;5058946;28;45469;-79
2022/01/12 17:21:41;;;;;;;;;36.25;34.00;;;;;5.33;67.02;103131.72;5059564;28;45469;-79
2022/01/12 17:24:12;;;;;;;;;31.00;28.00;;;;;5.32;67.45;103135.16;5055834;28;45449;-80
2022/01/12 17:26:40;;;;;;;;;37.75;32.50;;;;;5.32;67.18;103139.50;5065312;28;45582;-79
2022/01/12 17:29:08;;;;;;;;;37.50;35.25;;;;;5.31;67.00;103132.47;5064065;28;47369;-80
2022/01/12 17:31:34;;;;;;;;;37.50;31.75;;;;;5.26;67.43;103118.28;5062909;27;45508;-79
2022/01/12 17:34:01;;;;;;;;;40.75;29.75;;;;;5.34;67.27;103138.75;5062013;27;45838;-80
2022/01/12 17:36:34;;;;;;;;;33.25;32.25;;;;;5.36;67.18;103146.69;5060376;28;45488;-79
2022/01/12 17:39:04;;;;;;;;;36.75;31.25;;;;;5.38;67.08;103142.38;5066052;27;46472;-79
2022/01/12 17:41:31;;;;;;;;;44.75;37.75;;;;;5.38;66.74;103138.88;5071519;28;45357;-79
2022/01/12 17:43:56;;;;;;;;;45.00;36.00;;;;;5.42;66.95;103140.78;5066920;27;45470;-79
2022/01/12 17:46:21;;;;;;;;;36.00;30.75;;;;;5.41;67.00;103139.00;5065239;27;45573;-79
2022/01/12 17:48:47;;;;;;;;;46.25;37.50;;;;;5.40;67.09;103135.47;5071999;27;45556;-79
2022/01/12 17:51:13;;;;;;;;;41.75;35.25;;;;;5.43;66.82;103126.84;5068796;28;45417;-79
2022/01/12 17:53:38;;;;;;;;;38.00;31.25;;;;;5.41;66.52;103118.91;5066433;27;45405;-80
2022/01/12 17:56:05;;;;;;;;;35.50;30.75;;;;;5.43;66.32;103129.47;5062631;27;45447;-80
2022/01/12 17:58:31;;;;;;;;;41.00;32.75;;;;;5.41;67.00;103133.75;5064310;27;47118;-78
2022/01/12 18:00:57;;;;;;;;;35.50;28.00;;;;;5.40;66.66;103134.59;5057689;28;45392;-79
2022/01/12 18:03:22;;;;;;;;;35.25;34.25;;;;;5.39;67.10;103131.06;5061439;27;45409;-80
2022/01/12 18:05:47;;;;;;;;;37.25;37.25;;;;;5.38;67.21;103136.25;5063057;28;45525;-80
2022/01/12 18:08:13;;;;;;;;;36.00;31.25;;;;;5.39;67.60;103131.06;5068947;27;45996;-80
2022/01/12 18:10:38;;;;;;;;;40.00;36.25;;;;;5.41;67.02;103139.91;5076259;27;59382;-81
2022/01/12 18:13:04;;;;;;;;;25.00;24.50;;;;;5.38;67.08;103131.00;5067966;27;45439;-78
2022/01/12 18:15:38;;;;;;;;;36.50;31.75;;;;;5.39;66.98;103140.66;5052015;28;45556;-78
2022/01/12 18:18:08;;;;;;;;;36.75;26.50;;;;;5.36;67.37;103136.19;5055500;28;46167;-81
2022/01/12 18:20:33;;;;;;;;;39.00;33.25;;;;;5.38;67.22;103144.13;5062768;28;45451;-80
2022/01/12 18:23:00;;;;;;;;;34.00;28.25;;;;;5.33;67.44;103141.31;5072224;27;45381;-80
2022/01/12 18:25:25;;;;;;;;;32.25;28.25;;;;;5.33;67.83;103142.19;5062628;27;45611;-80
2022/01/12 18:27:51;;;;;;;;;35.25;28.50;;;;;5.33;67.49;103142.19;5071647;27;46187;-80
2022/01/12 18:30:16;;;;;;;;;32.75;30.00;;;;;5.35;67.55;103147.50;5064128;28;45945;-80
2022/01/12 18:32:41;;;;;;;;;43.25;32.50;;;;;5.34;66.63;103156.19;5064120;27;45428;-79
2022/01/12 18:35:08;;;;;;;;;40.50;28.00;;;;;5.35;67.21;103155.38;5060990;28;45526;-79
2022/01/12 18:37:33;;;;;;;;;27.00;27.00;;;;;5.31;66.94;103151.75;5061188;28;45421;-79
2022/01/12 18:39:59;;;;;;;;;34.25;29.25;;;;;5.32;66.99;103155.25;5064074;28;45362;-79
2022/01/12 18:42:25;;;;;;;;;37.00;30.00;;;;;5.31;67.31;103158.69;5052356;28;45407;-79
2022/01/12 18:44:51;;;;;;;;;36.50;29.25;;;;;5.27;67.09;103148.91;5059986;28;45559;-79
2022/01/12 18:47:17;;;;;;;;;36.50;32.00;;;;;5.28;67.51;103169.06;5068876;28;46443;-79
2022/01/12 18:49:44;;;;;;;;;30.50;28.25;;;;;5.30;67.10;103177.91;5071108;28;45433;-80
2022/01/12 18:52:10;;;;;;;;;40.50;33.00;;;;;5.27;67.10;103176.03;5072139;28;45420;-82
2022/01/12 18:54:35;;;;;;;;;32.50;29.00;;;;;5.24;67.58;103177.59;5070739;27;45446;-83
2022/01/12 18:57:02;;;;;;;;;45.75;37.25;;;;;5.18;67.60;103177.34;5069757;27;45955;-82
2022/01/12 18:59:28;;;;;;;;;42.50;32.50;;;;;5.15;67.60;103175.50;5075173;27;45604;-82
2022/01/12 19:01:53;;;;;;;;;38.00;33.00;;;;;5.21;68.60;103182.72;5076739;28;45444;-81
2022/01/12 19:04:20;;;;;;;;;34.25;34.25;;;;;5.23;68.76;103186.31;5071053;27;45572;-82
2022/01/12 19:06:46;;;;;;;;;42.25;37.00;;;;;5.26;68.47;103186.47;5069484;28;45934;-83
2022/01/12 19:09:14;;;;;;;;;40.50;33.00;;;;;5.28;68.97;103190.03;5078677;27;45464;-82
2022/01/12 19:11:41;;;;;;;;;48.50;40.25;;;;;5.29;68.56;103192.72;5069140;27;45626;-82
2022/01/12 19:14:12;;;;;;;;;30.25;25.25;;;;;5.26;68.96;103187.34;5075684;28;45590;-81
2022/01/12 19:16:39;;;;;;;;;34.50;29.00;;;;;5.28;68.67;103195.28;5064373;27;46440;-82
2022/01/12 19:19:05;;;;;;;;;28.00;27.75;;;;;5.21;69.61;103198.44;5063175;27;45651;-82
2022/01/12 19:21:31;;;;;;;;;34.00;34.00;;;;;5.19;69.41;103205.38;5056220;28;45414;-82
2022/01/12 19:24:00;;;;;;;;;44.25;33.50;;;;;5.15;69.58;103205.22;5063096;28;45460;-82
2022/01/12 19:26:26;;;;;;;;;40.50;32.50;;;;;5.14;69.97;103208.66;5070813;28;45577;-82
2022/01/12 19:28:51;;;;;;;;;35.25;32.50;;;;;5.15;69.90;103220.09;5061267;28;45413;-82
2022/01/12 19:31:16;;;;;;;;;36.00;34.75;;;;;5.13;70.04;103226.97;5067474;27;45416;-80
2022/01/12 19:33:45;;;;;;;;;40.25;34.25;;;;;5.09;70.12;103222.44;5058370;28;45643;-87
2022/01/12 19:36:10;;;;;;;;;29.00;27.25;;;;;5.10;70.26;103233.00;5060525;28;45484;-83
2022/01/12 19:38:36;;;;;;;;;35.25;31.00;;;;;5.06;69.83;103225.81;5070400;27;45513;-83
2022/01/12 19:41:01;;;;;;;;;40.00;38.25;;;;;5.08;69.60;103234.63;5074754;28;45592;-83
2022/01/12 19:43:27;;;;;;;;;42.25;36.50;;;;;5.03;69.31;103215.19;5073465;27;45636;-83
2022/01/12 19:45:53;;;;;;;;;39.00;31.25;;;;;5.09;69.58;103220.69;5056210;27;46140;-79
2022/01/12 19:48:18;;;;;;;;;38.50;33.75;;;;;5.07;69.89;103224.06;5057003;28;45544;-77
2022/01/12 19:50:44;;;;;;;;;39.00;35.50;;;;;5.03;69.93;103230.03;5060354;28;45377;-79
2022/01/12 19:53:47;;;;;;;;;36.00;29.25;;;;;5.02;70.18;103231.72;5075520;27;45438;-84
2022/01/12 19:56:13;;;;;;;;;36.00;31.00;;;;;4.98;70.32;103221.97;5069516;28;46328;-81
2022/01/12 19:58:47;;;;;;;;;34.75;32.50;;;;;4.93;70.60;103213.84;5088914;27;45447;-81
2022/01/12 20:01:21;;;;;;;;;37.00;33.25;;;;;5.02;70.67;103231.72;5085235;28;44843;-82
2022/01/12 20:03:46;;;;;;;;;39.75;37.25;;;;;4.77;70.83;103187.81;5087118;28;45140;-82
2022/01/12 20:06:13;;;;;;;;;34.00;28.25;;;;;4.97;71.26;103230.63;5070258;28;47114;-83
2022/01/12 20:08:39;;;;;;;;;47.75;40.00;;;;;4.95;71.16;103229.66;5061284;28;45412;-83
2022/01/12 20:11:06;;;;;;;;;33.75;31.50;;;;;4.99;71.84;103228.97;5064429;28;45630;-81
2022/01/12 20:13:32;;;;;;;;;49.75;43.75;;;;;4.96;71.62;103223.59;5066314;28;45348;-81
2022/01/12 20:16:03;;;;;;;;;17.50;15.25;;;;;4.93;72.09;103215.59;5062185;28;46432;-81
2022/01/12 20:21:43;;;;;;;;;41.25;37.25;;;;;4.98;73.16;103240.31;5080732;28;45495;-82
2022/01/12 20:24:23;;;;;;;;;44.00;37.50;;;;;5.01;72.97;103243.06;5079520;27;45365;-82
2022/01/12 20:26:58;;;;;;;;;37.00;33.75;;;;;4.97;73.42;103231.53;5073915;28;46106;-81
2022/01/12 20:29:24;;;;;;;;;43.00;39.00;;;;;4.97;73.59;103226.28;5073600;28;45390;-81
2022/01/12 20:31:50;;;;;;;;;43.50;41.50;;;;;4.91;73.89;103214.63;5073244;28;45459;-81
2022/01/12 20:34:16;;;;;;;;;43.00;38.75;;;;;4.98;73.86;103237.69;5076786;28;45512;-82
2022/01/12 20:36:44;;;;;;;;;48.25;41.25;;;;;4.79;74.04;103200.13;5060226;28;46144;-81
2022/01/12 20:39:09;;;;;;;;;55.50;45.00;;;;;4.92;74.54;103222.56;5058522;28;45757;-81
2022/01/12 20:41:35;;;;;;;;;44.00;40.75;;;;;4.89;74.68;103221.50;5079459;28;45416;-81
2022/01/12 20:44:05;;;;;;;;;42.00;37.25;;;;;4.87;75.05;103213.56;5061437;27;45358;-82
2022/01/12 20:46:31;;;;;;;;;50.75;43.50;;;;;4.90;75.31;103218.06;5064255;28;45699;-82
2022/01/12 20:48:57;;;;;;;;;49.75;41.50;;;;;4.87;75.87;103224.06;5077210;28;45431;-82
2022/01/12 20:51:23;;;;;;;;;53.00;43.75;;;;;4.86;75.32;103232.78;5077382;28;45346;-82
2022/01/12 20:53:52;;;;;;;;;59.50;48.00;;;;;4.81;76.15;103231.66;5058396;27;45477;-81
2022/01/12 20:56:22;;;;;;;;;54.50;45.50;;;;;4.75;76.33;103234.91;5074711;28;46321;-82
2022/01/12 20:58:49;;;;;;;;;61.50;47.00;;;;;4.73;76.06;103239.16;5078215;28;45479;-81
2022/01/12 21:01:16;;;;;;;;;55.00;43.00;;;;;4.65;76.49;103235.28;5078346;28;45551;-80
2022/01/12 21:03:42;;;;;;;;;55.75;43.00;;;;;4.65;77.29;103242.22;5079548;27;45365;-81
2022/01/12 21:06:08;;;;;;;;;54.50;38.00;;;;;4.62;77.23;103243.00;5077740;27;46212;-81
2022/01/12 21:08:35;;;;;;;;;53.00;47.00;;;;;4.62;77.58;103238.66;5080071;28;45438;-81
2022/01/12 21:11:02;;;;;;;;;48.75;41.75;;;;;4.59;77.51;103237.63;5082244;28;45413;-79
2022/01/12 21:13:27;;;;;;;;;69.00;47.00;;;;;4.59;78.10;103235.00;5061881;28;45539;-80
2022/01/12 21:15:52;;;;;;;;;60.50;45.50;;;;;4.53;78.05;103232.97;5056777;28;45421;-81
2022/01/12 21:18:18;;;;;;;;;48.00;39.75;;;;;4.43;78.00;103229.06;5056288;28;45507;-81
2022/01/12 21:20:44;;;;;;;;;43.75;40.75;;;;;4.55;78.74;103238.31;5059078;28;45560;-81
2022/01/12 21:23:10;;;;;;;;;48.75;43.50;;;;;4.49;78.19;103230.16;5066576;28;45326;-78
2022/01/12 21:25:35;;;;;;;;;62.00;45.50;;;;;4.48;78.58;103233.59;5073812;28;46196;-78
2022/01/12 21:28:01;;;;;;;;;55.00;44.75;;;;;4.45;78.61;103239.59;5075131;27;45423;-77
2022/01/12 21:30:27;;;;;;;;;52.25;42.75;;;;;4.43;78.92;103251.69;5071321;28;45500;-77
2022/01/12 21:32:52;;;;;;;;;38.75;31.25;;;;;4.43;78.95;103249.09;5054678;28;45428;-76
2022/01/12 21:35:23;;;;;;;;;42.50;37.75;;;;;4.40;78.95;103252.47;5055668;28;46115;-77
2022/01/12 21:37:53;;;;;;;;;43.25;40.25;;;;;4.36;79.38;103244.41;5056590;27;45493;-79
2022/01/12 21:40:42;;;;;;;;;38.50;37.00;;;;;4.36;79.17;103253.16;5059295;28;45298;-77
2022/01/12 21:43:09;;;;;;;;;44.50;36.00;;;;;4.35;79.52;103255.69;5066553;28;45681;-77
2022/01/12 21:45:36;;;;;;;;;39.00;31.00;;;;;4.35;79.41;103253.97;5075639;28;46304;-77
2022/01/12 21:48:03;;;;;;;;;45.75;39.75;;;;;4.32;79.51;103243.34;5075261;28;45461;-77
2022/01/12 21:50:29;;;;;;;;;34.75;32.00;;;;;4.35;79.26;103248.72;5064607;27;45535;-78
2022/01/12 21:52:54;;;;;;;;;43.25;37.00;;;;;4.30;79.37;103252.84;5054018;28;45467;-75
2022/01/12 21:55:19;;;;;;;;;24.50;22.25;;;;;4.25;79.72;103246.47;5054578;28;45450;-77
2022/01/12 21:57:48;;;;;;;;;44.00;40.00;;;;;4.22;80.07;103259.41;5054488;28;45548;-77
2022/01/12 22:00:15;;;;;;;;;27.00;24.25;;;;;4.23;79.96;103258.59;5062423;28;44788;-77
2022/01/12 22:02:41;;;;;;;;;34.25;28.75;;;;;4.23;80.14;103253.38;5073499;28;45399;-77
2022/01/12 22:05:06;;;;;;;;;33.25;29.50;;;;;4.23;80.16;103250.75;5074877;27;45519;-77
2022/01/12 22:07:33;;;;;;;;;31.75;31.75;;;;;4.18;79.97;103255.75;5074840;28;45310;-77
2022/01/12 22:09:58;;;;;;;;;32.25;29.50;;;;;4.17;80.56;103266.16;5073960;27;45392;-77
2022/01/12 22:12:24;;;;;;;;;33.00;30.50;;;;;4.14;80.58;103258.16;5058181;28;45640;-78
2022/01/12 22:14:50;;;;;;;;;38.75;28.75;;;;;4.17;80.70;103271.41;5054998;28;45812;-77
2022/01/12 22:17:16;;;;;;;;;40.25;34.00;;;;;4.12;80.44;103271.16;5055224;28;45504;-77
2022/01/12 22:19:43;;;;;;;;;39.50;34.25;;;;;4.09;81.15;103269.28;5064228;28;45413;-77
2022/01/12 22:22:17;;;;;;;;;29.75;24.50;;;;;4.03;81.01;103271.59;5056843;28;45599;-76
2022/01/12 22:24:43;;;;;;;;;30.25;27.50;;;;;3.98;81.46;103266.94;5058585;28;45445;-77
2022/01/12 22:27:09;;;;;;;;;41.00;27.50;;;;;3.93;82.43;103274.56;5058394;28;45490;-76
2022/01/12 22:29:35;;;;;;;;;34.00;26.25;;;;;3.91;81.84;103276.22;5057893;28;45555;-77
2022/01/12 22:32:00;;;;;;;;;30.75;23.00;;;;;3.93;82.45;103279.81;5059953;28;45516;-77
2022/01/12 22:34:25;;;;;;;;;38.25;32.50;;;;;3.94;82.27;103281.63;5058875;28;46521;-76
2022/01/12 22:36:51;;;;;;;;;25.00;21.50;;;;;3.95;82.07;103277.25;5059897;28;45483;-77
2022/01/12 22:39:16;;;;;;;;;37.00;32.50;;;;;3.91;82.87;103276.22;5060787;28;45457;-78
2022/01/12 22:41:42;;;;;;;;;30.75;28.00;;;;;3.87;82.54;103269.94;5072136;28;45472;-77
2022/01/12 22:44:08;;;;;;;;;34.00;27.00;;;;;3.89;82.97;103273.53;5083271;27;45506;-77
2022/01/12 22:46:33;;;;;;;;;30.00;28.00;;;;;3.83;82.92;103272.34;5079908;27;45341;-77
2022/01/12 22:48:59;;;;;;;;;37.00;26.50;;;;;3.86;82.94;103275.09;5079180;27;45492;-77
2022/01/12 22:51:24;;;;;;;;;26.25;25.75;;;;;3.86;82.71;103282.97;5075521;28;45603;-76
2022/01/12 22:53:50;;;;;;;;;39.00;29.00;;;;;3.78;83.53;103274.72;5078889;27;46173;-76
2022/01/12 22:56:24;;;;;;;;;34.00;33.25;;;;;3.84;83.07;103284.56;5078187;27;45380;-77
2022/01/12 22:58:50;;;;;;;;;29.50;24.75;;;;;3.78;83.81;103277.34;5076066;27;45435;-75
2022/01/12 23:01:19;;;;;;;;;31.00;29.25;;;;;3.76;83.89;103270.22;5058449;28;45397;-76
2022/01/12 23:03:44;;;;;;;;;32.25;25.25;;;;;3.80;83.60;103274.81;5058544;28;46122;-77
2022/01/12 23:06:12;;;;;;;;;29.50;26.25;;;;;3.77;83.58;103282.50;5057879;28;45382;-75
2022/01/12 23:08:39;;;;;;;;;27.00;23.00;;;;;3.77;84.21;103272.03;5060493;28;45336;-77
2022/01/12 23:11:05;;;;;;;;;30.75;22.75;;;;;3.83;83.39;103272.34;5063557;28;45410;-77
2022/01/12 23:13:31;;;;;;;;;26.75;24.00;;;;;3.84;83.21;103271.50;5080540;28;46163;-77
2022/01/12 23:15:56;;;;;;;;;29.50;25.00;;;;;3.84;83.65;103276.72;5081549;27;45792;-77
2022/01/12 23:18:22;;;;;;;;;26.75;22.00;;;;;3.81;83.69;103279.19;5078763;27;45738;-77
2022/01/12 23:20:47;;;;;;;;;39.25;33.00;;;;;3.82;83.18;103275.75;5076212;28;45322;-77
2022/01/12 23:23:13;;;;;;;;;39.75;27.50;;;;;3.78;83.19;103269.50;5058140;28;46211;-77
2022/01/12 23:25:38;;;;;;;;;42.75;27.50;;;;;3.81;83.87;103279.19;5056839;28;45392;-77
2022/01/12 23:28:04;;;;;;;;;29.00;25.75;;;;;3.79;83.20;103276.50;5065140;28;45428;-77
2022/01/12 23:30:30;;;;;;;;;37.50;24.25;;;;;3.85;83.26;103271.56;5076028;28;45400;-77
2022/01/12 23:32:58;;;;;;;;;33.75;30.00;;;;;3.86;83.28;103269.88;5057988;28;46296;-76
2022/01/12 23:48:51;;;;;;;;;37.50;35.00;;;;;3.90;84.30;103261.34;5059333;28;45393;-75
2022/01/12 23:56:49;;;;;;;;;37.00;29.75;;;;;3.89;83.63;103270.03;5056300;28;45504;-76
2022/01/12 23:59:21;;;;;;;;;35.25;29.00;;;;;3.90;83.74;103264.88;5067119;28;45777;-76
